createdAt,value
2019-01-05T00:01:24.640Z,0.30
2019-01-05T00:03:31.513Z,0.30
2019-01-05T00:05:25.004Z,0.30
2019-01-05T00:07:20.241Z,0.30
2019-01-05T00:09:18.592Z,0.30
2019-01-05T00:11:12.323Z,0.40
2019-01-05T00:13:09.282Z,0.30
2019-01-05T00:15:07.481Z,0.40
2019-01-05T00:17:06.402Z,0.40
2019-01-05T00:19:10.752Z,0.30
2019-01-05T00:21:06.037Z,0.30
2019-01-05T00:23:05.717Z,0.30
2019-01-05T00:25:19.346Z,0.30
2019-01-05T00:27:26.468Z,0.40
2019-01-05T00:29:24.443Z,0.40
2019-01-05T00:31:20.233Z,0.40
2019-01-05T00:33:15.131Z,0.30
2019-01-05T00:35:08.269Z,0.30
2019-01-05T00:37:02.441Z,0.30
2019-01-05T00:38:58.017Z,0.30
2019-01-05T00:40:54.890Z,0.30
2019-01-05T00:42:49.456Z,0.30
2019-01-05T00:44:44.742Z,0.30
2019-01-05T00:46:39.671Z,0.30
2019-01-05T00:48:41.903Z,0.30
2019-01-05T00:50:45.570Z,0.30
2019-01-05T00:52:53.450Z,0.30
2019-01-05T00:55:00.754Z,0.30
2019-01-05T00:57:02.711Z,0.30
2019-01-05T00:59:00.976Z,0.30
2019-01-05T01:00:54.615Z,0.30
2019-01-05T01:02:41.893Z,0.30
2019-01-05T01:04:35.595Z,0.30
2019-01-05T01:06:41.720Z,0.30
2019-01-05T01:08:39.847Z,0.30
2019-01-05T01:10:44.179Z,0.30
2019-01-05T01:12:48.204Z,0.30
2019-01-05T01:14:43.447Z,0.30
2019-01-05T01:16:50.542Z,0.30
2019-01-05T01:18:54.877Z,0.30
2019-01-05T01:21:08.283Z,0.30
2019-01-05T01:23:08.287Z,0.20
2019-01-05T01:25:07.083Z,0.20
2019-01-05T01:27:05.133Z,0.20
2019-01-05T01:29:06.601Z,0.20
2019-01-05T01:31:00.487Z,0.20
2019-01-05T01:32:54.239Z,0.20
2019-01-05T01:34:55.405Z,0.20
2019-01-05T01:36:49.230Z,0.10
2019-01-05T01:39:09.389Z,0.10
2019-01-05T01:41:06.513Z,0.10
2019-01-05T01:43:07.773Z,0.10
2019-01-05T01:45:05.938Z,0.10
2019-01-05T01:46:59.910Z,0.10
2019-01-05T01:48:54.660Z,0.10
2019-01-05T01:50:48.854Z,0.10
2019-01-05T01:52:44.533Z,0.10
2019-01-05T01:54:40.156Z,0.10
2019-01-05T01:56:43.261Z,0.10
2019-01-05T01:58:38.546Z,0.10
2019-01-05T02:00:46.529Z,0.10
2019-01-05T02:02:41.406Z,0.10
2019-01-05T02:04:48.045Z,0.10
2019-01-05T02:07:02.658Z,0.10
2019-01-05T02:09:06.140Z,0.10
2019-01-05T02:11:00.950Z,0.10
2019-01-05T02:13:00.759Z,0.10
2019-01-05T02:14:59.703Z,0.10
2019-01-05T02:17:07.957Z,0.10
2019-01-05T02:19:16.182Z,0.10
2019-01-05T02:21:47.182Z,0.10
2019-01-05T02:24:24.696Z,0.10
2019-01-05T02:26:35.726Z,0.10
2019-01-05T02:28:52.482Z,0.10
2019-01-05T02:31:37.988Z,0.10
2019-01-05T02:34:24.123Z,0.10
2019-01-05T02:36:54.527Z,0.10
2019-01-05T02:39:27.102Z,0.10
2019-01-05T02:42:11.334Z,0.10
2019-01-05T02:44:37.349Z,0.10
2019-01-05T02:46:56.874Z,0.10
2019-01-05T02:49:12.760Z,0.20
2019-01-05T02:51:23.451Z,0.10
2019-01-05T02:53:40.451Z,0.20
2019-01-05T02:56:13.098Z,0.20
2019-01-05T02:59:02.204Z,0.20
2019-01-05T03:01:24.466Z,0.20
2019-01-05T03:04:34.627Z,0.20
2019-01-05T03:07:09.740Z,0.20
2019-01-05T03:09:31.935Z,0.20
2019-01-05T03:12:08.765Z,0.20
2019-01-05T03:14:58.288Z,0.20
2019-01-05T03:17:30.653Z,0.20
2019-01-05T03:19:48.738Z,0.20
2019-01-05T03:22:49.210Z,0.20
2019-01-05T03:25:31.108Z,0.30
2019-01-05T03:28:02.430Z,0.30
2019-01-05T03:30:32.745Z,0.30
2019-01-05T03:32:57.023Z,0.30
2019-01-05T03:35:19.193Z,0.30
2019-01-05T03:37:52.883Z,0.30
2019-01-05T03:40:19.574Z,0.30
2019-01-05T03:43:19.171Z,0.30
2019-01-05T03:45:51.798Z,0.30
2019-01-05T03:48:14.362Z,0.30
2019-01-05T03:50:53.859Z,0.30
2019-01-05T03:53:25.038Z,0.30
2019-01-05T03:56:05.993Z,0.30
2019-01-05T03:59:04.463Z,0.30
2019-01-05T04:01:39.514Z,0.30
2019-01-05T04:04:19.172Z,0.40
2019-01-05T04:06:40.845Z,0.30
2019-01-05T04:08:54.979Z,0.30
2019-01-05T04:12:04.917Z,0.30
2019-01-05T04:14:46.954Z,0.30
2019-01-05T04:17:33.303Z,0.30
2019-01-05T04:20:07.394Z,0.30
2019-01-05T04:22:33.968Z,0.30
2019-01-05T04:25:04.356Z,0.30
2019-01-05T04:27:59.656Z,0.30
2019-01-05T04:30:22.148Z,0.30
2019-01-05T04:33:09.369Z,0.20
2019-01-05T04:35:28.677Z,0.30
2019-01-05T04:38:13.336Z,0.30
2019-01-05T04:40:48.636Z,0.20
2019-01-05T04:43:14.399Z,0.20
2019-01-05T04:46:02.302Z,0.20
2019-01-05T04:48:25.014Z,0.20
2019-01-05T04:51:15.043Z,0.20
2019-01-05T04:54:06.349Z,0.20
2019-01-05T04:56:47.970Z,0.20
2019-01-05T04:59:08.272Z,0.20
2019-01-05T05:01:57.354Z,0.20
2019-01-05T05:04:47.457Z,0.20
2019-01-05T05:07:06.615Z,0.20
2019-01-05T05:09:46.508Z,0.20
2019-01-05T05:12:13.421Z,0.20
2019-01-05T05:14:42.630Z,0.20
2019-01-05T05:17:04.842Z,0.20
2019-01-05T05:19:40.428Z,0.10
2019-01-05T05:22:33.782Z,0.20
2019-01-05T05:25:03.989Z,0.30
2019-01-05T05:27:32.292Z,0.30
2019-01-05T05:30:14.838Z,0.30
2019-01-05T05:33:09.041Z,0.30
2019-01-05T05:35:36.729Z,0.30
2019-01-05T05:38:22.403Z,0.30
2019-01-05T05:40:47.737Z,0.30
2019-01-05T05:43:37.726Z,0.30
2019-01-05T05:46:37.419Z,0.30
2019-01-05T05:49:30.461Z,0.30
2019-01-05T05:51:53.492Z,0.30
2019-01-05T05:54:25.021Z,0.30
2019-01-05T05:57:04.545Z,0.30
2019-01-05T06:00:08.691Z,0.30
2019-01-05T06:02:58.544Z,0.30
2019-01-05T06:05:20.964Z,0.30
2019-01-05T06:07:58.103Z,0.30
2019-01-05T06:10:34.450Z,0.30
2019-01-05T06:13:17.073Z,0.30
2019-01-05T06:16:12.919Z,0.30
2019-01-05T06:18:58.074Z,0.30
2019-01-05T06:21:43.119Z,0.30
2019-01-05T06:24:18.083Z,0.40
2019-01-05T06:27:00.794Z,0.40
2019-01-05T06:29:23.018Z,0.40
2019-01-05T06:32:01.311Z,0.40
2019-01-05T06:34:39.101Z,0.40
2019-01-05T06:37:09.775Z,0.40
2019-01-05T06:39:40.411Z,0.40
2019-01-05T06:41:55.486Z,0.40
2019-01-05T06:44:45.314Z,0.40
2019-01-05T06:47:22.191Z,0.40
2019-01-05T06:50:10.984Z,0.40
2019-01-05T06:52:36.886Z,0.40
2019-01-05T06:55:15.324Z,0.40
2019-01-05T06:58:06.348Z,0.40
2019-01-05T07:00:56.155Z,0.40
2019-01-05T07:03:35.877Z,0.40
2019-01-05T07:06:28.593Z,0.40
2019-01-05T07:09:24.114Z,0.40
2019-01-05T07:11:46.703Z,0.40
2019-01-05T07:14:19.686Z,0.40
2019-01-05T07:16:57.307Z,0.40
2019-01-05T07:19:27.000Z,0.40
2019-01-05T07:22:16.434Z,0.40
2019-01-05T07:25:06.176Z,0.50
2019-01-05T07:27:59.105Z,0.40
2019-01-05T07:30:25.344Z,0.50
2019-01-05T07:33:17.760Z,0.50
2019-01-05T07:35:59.014Z,0.50
2019-01-05T07:38:28.587Z,0.50
2019-01-05T07:42:18.933Z,0.50
2019-01-05T07:44:28.759Z,0.50
2019-01-05T07:46:36.095Z,0.50
2019-01-05T07:48:43.164Z,0.60
2019-01-05T07:50:50.166Z,0.50
2019-01-05T07:52:56.848Z,0.50
2019-01-05T07:59:19.962Z,0.50
2019-01-05T08:01:27.339Z,0.50
2019-01-05T08:03:35.022Z,0.50
2019-01-05T08:07:51.358Z,0.60
2019-01-05T08:09:55.691Z,0.60
2019-01-05T08:12:02.947Z,0.50
2019-01-05T08:14:29.450Z,0.50
2019-01-05T08:16:32.230Z,0.50
2019-01-05T08:18:39.618Z,0.50
2019-01-05T08:23:01.224Z,0.50
2019-01-05T08:25:09.100Z,0.50
2019-01-05T08:27:16.169Z,0.50
2019-01-05T08:29:49.057Z,0.50
2019-01-05T08:34:27.404Z,0.50
2019-01-05T08:36:34.761Z,0.50
2019-01-05T08:38:42.186Z,0.50
2019-01-05T08:41:09.338Z,0.50
2019-01-05T08:43:21.948Z,0.50
2019-01-05T08:45:29.819Z,0.50
2019-01-05T08:49:43.634Z,0.60
2019-01-05T08:51:44.495Z,0.50
2019-01-05T08:54:12.446Z,0.60
2019-01-05T08:59:11.935Z,0.50
2019-01-05T09:03:28.265Z,0.60
2019-01-05T09:05:35.450Z,0.50
2019-01-05T09:07:42.431Z,0.60
2019-01-05T09:09:54.358Z,0.50
2019-01-05T09:12:01.418Z,0.60
2019-01-05T09:14:08.535Z,0.40
2019-01-05T09:16:20.240Z,0.60
2019-01-05T09:20:34.689Z,0.60
2019-01-05T09:24:48.700Z,0.60
2019-01-05T09:26:55.362Z,0.60
2019-01-05T09:31:32.743Z,0.50
2019-01-05T09:33:40.830Z,0.60
2019-01-05T09:35:48.007Z,0.60
2019-01-05T09:37:57.331Z,0.60
2019-01-05T09:40:04.834Z,0.60
2019-01-05T09:42:12.002Z,0.60
2019-01-05T09:46:26.361Z,0.60
2019-01-05T09:50:44.380Z,0.60
2019-01-05T09:52:40.565Z,0.60
2019-01-05T09:56:57.410Z,0.60
2019-01-05T10:01:13.930Z,0.60
2019-01-05T10:03:19.344Z,0.60
2019-01-05T10:07:33.415Z,0.70
2019-01-05T10:09:40.030Z,0.60
2019-01-05T10:12:06.358Z,0.60
2019-01-05T10:14:13.502Z,0.70
2019-01-05T10:16:40.023Z,0.70
2019-01-05T10:18:48.026Z,0.70
2019-01-05T10:20:57.657Z,0.70
2019-01-05T10:23:05.156Z,0.60
2019-01-05T10:25:12.667Z,0.70
2019-01-05T10:27:14.598Z,0.70
2019-01-05T10:29:22.298Z,0.70
2019-01-05T10:33:36.558Z,0.70
2019-01-05T10:35:49.873Z,0.70
2019-01-05T10:38:14.342Z,0.70
2019-01-05T10:40:26.851Z,0.70
2019-01-05T10:42:33.374Z,0.80
2019-01-05T10:44:43.465Z,0.80
2019-01-05T10:49:10.387Z,0.80
2019-01-05T10:53:48.771Z,0.80
2019-01-05T10:58:21.965Z,0.80
2019-01-05T11:00:24.492Z,0.90
2019-01-05T11:02:32.153Z,0.90
2019-01-05T11:04:39.788Z,0.90
2019-01-05T11:21:05.054Z,0.90
2019-01-05T11:23:05.770Z,0.90
2019-01-05T11:25:32.393Z,0.90
2019-01-05T11:28:05.844Z,0.90
2019-01-05T11:30:18.421Z,0.90
2019-01-05T11:32:25.831Z,0.90
2019-01-05T11:34:30.926Z,0.90
2019-01-05T11:36:57.037Z,1.00
2019-01-05T11:43:59.822Z,1.10
2019-01-05T11:46:07.037Z,1.10
2019-01-05T11:48:10.068Z,1.20
2019-01-05T11:50:17.360Z,1.20
2019-01-05T11:52:25.689Z,1.20
2019-01-05T11:54:33.745Z,1.20
2019-01-05T11:56:40.742Z,1.20
2019-01-05T12:00:57.756Z,1.20
2019-01-05T12:03:35.430Z,1.30
2019-01-05T12:05:42.071Z,1.30
2019-01-05T12:10:14.743Z,1.30
2019-01-05T12:12:22.282Z,1.40
2019-01-05T12:14:29.356Z,1.30
2019-01-05T12:19:36.523Z,1.40
2019-01-05T12:22:03.603Z,1.40
2019-01-05T12:26:09.497Z,1.30
2019-01-05T12:28:19.554Z,1.30
2019-01-05T12:30:26.785Z,1.30
2019-01-05T12:33:04.283Z,1.30
2019-01-05T12:35:21.684Z,1.20
2019-01-05T12:37:52.622Z,1.20
2019-01-05T12:39:59.923Z,1.20
2019-01-05T12:44:16.471Z,1.10
2019-01-05T12:46:23.775Z,1.10
2019-01-05T12:48:31.793Z,1.10
2019-01-05T12:50:39.124Z,1.10
2019-01-05T12:53:07.985Z,1.00
2019-01-05T12:55:09.057Z,1.10
2019-01-05T12:57:16.434Z,1.10
2019-01-05T13:23:41.290Z,1.20
2019-01-05T13:26:25.200Z,1.00
2019-01-05T13:29:02.538Z,0.90
2019-01-05T13:31:28.756Z,0.90
2019-01-05T13:33:56.275Z,0.90
2019-01-05T13:36:29.028Z,0.90
2019-01-05T13:38:59.081Z,0.90
2019-01-05T13:41:51.131Z,0.90
2019-01-05T13:44:28.123Z,0.90
2019-01-05T13:47:01.186Z,0.90
2019-01-05T13:48:55.493Z,0.90
2019-01-05T13:51:25.142Z,0.90
2019-01-05T13:53:52.374Z,0.90
2019-01-05T13:55:53.955Z,0.90
2019-01-05T13:57:40.951Z,0.90
2019-01-05T13:59:28.921Z,0.90
2019-01-05T14:01:27.307Z,0.90
2019-01-05T14:03:21.804Z,0.80
2019-01-05T14:05:26.077Z,0.80
2019-01-05T14:07:33.428Z,0.80
2019-01-05T14:09:33.374Z,0.80
2019-01-05T14:11:35.631Z,0.80
2019-01-05T14:13:34.059Z,0.80
2019-01-05T14:15:28.178Z,0.80
2019-01-05T14:17:23.808Z,0.80
2019-01-05T14:19:28.421Z,0.90
2019-01-05T14:21:39.198Z,0.90
2019-01-05T14:23:37.368Z,0.90
2019-01-05T14:25:50.499Z,0.90
2019-01-05T14:27:55.326Z,0.90
2019-01-05T14:29:49.504Z,0.90
2019-01-05T14:31:47.886Z,0.90
2019-01-05T14:33:34.812Z,0.90
2019-01-05T14:35:40.351Z,0.90
2019-01-05T14:37:41.764Z,0.90
2019-01-05T14:39:35.656Z,0.90
2019-01-05T14:41:29.055Z,0.90
2019-01-05T14:43:32.179Z,0.90
2019-01-05T14:45:26.531Z,0.90
2019-01-05T14:47:20.519Z,0.90
2019-01-05T14:49:20.781Z,0.90
2019-01-05T14:51:14.727Z,0.90
2019-01-05T14:53:29.009Z,0.90
2019-01-05T14:55:27.876Z,0.90
2019-01-05T14:57:22.377Z,0.90
2019-01-05T14:59:17.501Z,0.90
2019-01-05T15:01:18.707Z,0.90
2019-01-05T15:03:16.585Z,0.90
2019-01-05T15:05:21.028Z,0.90
2019-01-05T15:07:25.527Z,0.90
2019-01-05T15:09:18.401Z,0.90
2019-01-05T15:11:09.231Z,0.90
2019-01-05T15:13:13.449Z,0.90
2019-01-05T15:15:11.502Z,0.90
2019-01-05T15:17:09.429Z,0.90
2019-01-05T15:19:10.721Z,0.90
2019-01-05T15:21:14.832Z,0.90
2019-01-05T15:23:08.849Z,0.90
2019-01-05T15:25:02.608Z,0.90
2019-01-05T15:27:00.516Z,0.90
2019-01-05T15:28:58.532Z,1.00
2019-01-05T15:30:52.621Z,0.90
2019-01-05T15:32:46.657Z,1.00
2019-01-05T15:34:53.064Z,1.00
2019-01-05T15:36:46.714Z,1.00
2019-01-05T15:38:54.260Z,1.00
2019-01-05T15:41:01.740Z,1.00
2019-01-05T15:43:12.018Z,1.00
2019-01-05T15:45:09.870Z,1.00
2019-01-05T15:47:18.278Z,1.10
2019-01-05T15:49:12.230Z,1.10
2019-01-05T15:51:13.734Z,1.10
2019-01-05T15:53:19.031Z,1.10
2019-01-05T15:55:12.646Z,1.10
2019-01-05T15:57:10.561Z,1.10
2019-01-05T15:59:04.474Z,1.00
2019-01-05T16:00:57.317Z,1.00
2019-01-05T16:02:52.419Z,1.00
2019-01-05T16:04:46.158Z,1.00
2019-01-05T16:06:41.450Z,1.00
2019-01-05T16:08:42.639Z,1.00
2019-01-05T16:10:36.576Z,1.10
2019-01-05T16:12:31.373Z,1.10
2019-01-05T16:14:44.279Z,1.10
2019-01-05T16:16:38.132Z,1.00
2019-01-05T16:18:30.673Z,1.10
2019-01-05T16:20:42.155Z,1.10
2019-01-05T16:22:47.654Z,1.10
2019-01-05T16:24:45.820Z,1.10
2019-01-05T16:26:37.684Z,1.10
2019-01-05T16:28:31.150Z,1.10
2019-01-05T16:30:33.058Z,1.10
2019-01-05T16:32:30.983Z,1.20
2019-01-05T16:34:24.690Z,1.20
2019-01-05T16:36:20.646Z,1.20
2019-01-05T16:38:15.752Z,1.20
2019-01-05T16:40:09.550Z,1.20
2019-01-05T16:42:03.398Z,1.20
2019-01-05T16:44:01.526Z,1.20
2019-01-05T16:45:55.767Z,1.20
2019-01-05T16:47:54.034Z,1.20
2019-01-05T16:50:04.353Z,1.20
2019-01-05T16:51:58.307Z,1.20
2019-01-05T16:54:06.689Z,1.20
2019-01-05T16:56:00.647Z,1.10
2019-01-05T16:57:55.741Z,1.20
2019-01-05T16:59:47.154Z,1.20
2019-01-05T17:01:40.650Z,1.20
2019-01-05T17:03:34.715Z,1.20
2019-01-05T17:05:48.425Z,1.20
2019-01-05T17:07:41.905Z,1.10
2019-01-05T17:09:43.933Z,1.10
2019-01-05T17:11:44.703Z,1.10
2019-01-05T17:13:39.849Z,1.10
2019-01-05T17:15:33.882Z,1.10
2019-01-05T17:17:41.401Z,1.10
2019-01-05T17:19:46.626Z,1.20
2019-01-05T17:22:00.060Z,1.20
2019-01-05T17:24:09.201Z,1.10
2019-01-05T17:26:04.386Z,1.10
2019-01-05T17:28:08.218Z,1.10
2019-01-05T17:29:57.326Z,1.20
2019-01-05T17:31:55.136Z,1.20
2019-01-05T17:33:48.505Z,1.20
2019-01-05T17:35:46.801Z,1.20
2019-01-05T17:37:51.013Z,1.20
2019-01-05T17:39:40.156Z,1.20
2019-01-05T17:41:34.134Z,1.20
2019-01-05T17:43:45.360Z,1.20
2019-01-05T17:45:46.285Z,1.20
2019-01-05T17:47:40.484Z,1.20
2019-01-05T17:49:41.495Z,1.20
2019-01-05T17:51:39.379Z,1.20
2019-01-05T17:53:38.654Z,1.10
2019-01-05T17:55:33.369Z,1.20
2019-01-05T17:57:37.578Z,1.10
2019-01-05T17:59:32.726Z,1.20
2019-01-05T18:01:28.014Z,1.10
2019-01-05T18:03:21.767Z,1.10
2019-01-05T18:05:29.337Z,1.10
2019-01-05T18:07:23.335Z,1.10
2019-01-05T18:09:17.630Z,1.10
2019-01-05T18:11:24.763Z,1.10
2019-01-05T18:13:18.891Z,1.10
2019-01-05T18:15:12.752Z,1.10
2019-01-05T18:17:06.834Z,1.10
2019-01-05T18:18:51.294Z,1.10
2019-01-05T18:20:58.614Z,1.10
2019-01-05T18:23:02.841Z,1.10
2019-01-05T18:24:53.331Z,1.10
2019-01-05T18:26:45.298Z,1.10
2019-01-05T18:28:35.856Z,1.10
2019-01-05T18:30:33.975Z,1.10
2019-01-05T18:32:35.057Z,1.10
2019-01-05T18:34:32.956Z,1.10
2019-01-05T18:36:34.154Z,1.10
2019-01-05T18:38:38.337Z,1.20
2019-01-05T18:40:32.357Z,1.20
2019-01-05T18:42:32.710Z,1.20
2019-01-05T18:44:29.368Z,1.20
2019-01-05T18:46:33.673Z,1.20
2019-01-05T18:48:37.762Z,1.20
2019-01-05T18:50:37.029Z,1.20
2019-01-05T18:52:31.967Z,1.20
2019-01-05T18:54:24.589Z,1.20
2019-01-05T18:56:22.821Z,1.20
2019-01-05T18:58:16.629Z,1.20
2019-01-05T19:00:30.380Z,1.20
2019-01-05T19:02:31.949Z,1.20
2019-01-05T19:04:33.068Z,1.20
2019-01-05T19:06:26.801Z,1.20
2019-01-05T19:08:34.415Z,1.20
2019-01-05T19:10:31.549Z,1.20
2019-01-05T19:12:26.246Z,1.20
2019-01-05T19:14:22.155Z,1.20
2019-01-05T19:16:20.660Z,1.20
2019-01-05T19:18:09.808Z,1.20
2019-01-05T19:20:11.429Z,1.20
2019-01-05T19:22:05.965Z,1.20
2019-01-05T19:24:00.222Z,1.20
2019-01-05T19:26:14.032Z,1.20
2019-01-05T19:28:07.774Z,1.20
2019-01-05T19:30:10.601Z,1.20
2019-01-05T19:32:06.185Z,1.20
2019-01-05T19:34:01.374Z,1.20
2019-01-05T19:35:56.799Z,1.20
2019-01-05T19:37:51.071Z,1.20
2019-01-05T19:39:59.515Z,1.20
2019-01-05T19:41:53.222Z,1.20
2019-01-05T19:43:47.162Z,1.20
2019-01-05T19:45:42.224Z,1.20
2019-01-05T19:47:49.705Z,1.20
2019-01-05T19:49:43.579Z,1.20
2019-01-05T19:51:41.849Z,1.20
2019-01-05T19:53:45.900Z,1.20
2019-01-05T19:55:38.411Z,1.20
2019-01-05T19:57:33.578Z,1.20
2019-01-05T19:59:28.827Z,1.30
2019-01-05T20:01:20.329Z,1.20
2019-01-05T20:03:18.464Z,1.20
2019-01-05T20:05:12.484Z,1.20
2019-01-05T20:07:06.706Z,1.20
2019-01-05T20:09:14.102Z,1.20
2019-01-05T20:11:07.975Z,1.20
2019-01-05T20:13:01.719Z,1.20
2019-01-05T20:14:59.167Z,1.20
2019-01-05T20:17:03.709Z,1.20
2019-01-05T20:19:01.776Z,1.20
2019-01-05T20:21:03.085Z,1.20
2019-01-05T20:23:05.037Z,1.20
2019-01-05T20:25:12.385Z,1.20
2019-01-05T20:27:05.977Z,1.20
2019-01-05T20:28:59.780Z,1.20
2019-01-05T20:31:06.921Z,1.10
2019-01-05T20:33:01.105Z,1.20
2019-01-05T20:35:14.360Z,1.20
2019-01-05T20:37:09.616Z,1.20
2019-01-05T20:39:04.361Z,1.20
2019-01-05T20:40:58.408Z,1.10
2019-01-05T20:42:52.065Z,1.20
2019-01-05T20:44:47.407Z,1.20
2019-01-05T20:46:45.922Z,1.20
2019-01-05T20:48:44.166Z,1.20
2019-01-05T20:50:54.503Z,1.20
2019-01-05T20:53:05.277Z,1.10
2019-01-05T20:55:09.386Z,1.10
2019-01-05T20:57:20.061Z,1.10
2019-01-05T20:59:13.708Z,1.10
2019-01-05T21:01:21.112Z,1.10
2019-01-05T21:03:15.061Z,1.10
2019-01-05T21:05:28.587Z,1.10
2019-01-05T21:07:26.562Z,1.10
2019-01-05T21:09:31.197Z,1.10
2019-01-05T21:11:25.604Z,1.10
2019-01-05T21:13:19.734Z,1.10
2019-01-05T21:15:07.113Z,1.10
2019-01-05T21:17:05.309Z,1.10
2019-01-05T21:19:09.807Z,1.10
2019-01-05T21:21:11.000Z,1.10
2019-01-05T21:23:08.892Z,1.10
2019-01-05T21:25:10.842Z,1.20
2019-01-05T21:27:00.342Z,1.20
2019-01-05T21:28:59.337Z,1.20
2019-01-05T21:30:57.689Z,1.20
2019-01-05T21:32:51.869Z,1.20
2019-01-05T21:34:46.001Z,1.20
2019-01-05T21:36:39.699Z,1.10
2019-01-05T21:38:31.526Z,1.10
2019-01-05T21:40:26.174Z,1.10
2019-01-05T21:42:24.362Z,1.10
2019-01-05T21:44:30.243Z,1.00
2019-01-05T21:46:32.596Z,1.00
2019-01-05T21:48:39.969Z,1.00
2019-01-05T21:50:50.126Z,1.00
2019-01-05T21:52:45.411Z,1.00
2019-01-05T21:54:33.358Z,1.00
2019-01-05T21:56:29.153Z,1.10
2019-01-05T21:58:15.797Z,1.10
2019-01-05T22:00:16.489Z,1.10
2019-01-05T22:02:14.658Z,1.00
2019-01-05T22:04:09.887Z,1.00
2019-01-05T22:06:16.785Z,1.00
2019-01-05T22:08:05.737Z,1.00
2019-01-05T22:10:07.021Z,1.10
2019-01-05T22:12:00.700Z,1.10
2019-01-05T22:14:01.840Z,1.10
2019-01-05T22:16:02.515Z,1.10
2019-01-05T22:18:09.829Z,1.10
2019-01-05T22:20:10.608Z,1.10
2019-01-05T22:22:04.664Z,1.10
2019-01-05T22:24:02.964Z,1.10
2019-01-05T22:25:58.928Z,1.20
2019-01-05T22:28:08.777Z,1.20
2019-01-05T22:30:02.887Z,1.20
2019-01-05T22:32:05.786Z,1.20
2019-01-05T22:34:15.749Z,1.20
2019-01-05T22:36:13.586Z,1.20
2019-01-05T22:38:08.897Z,1.20
2019-01-05T22:40:22.149Z,1.20
2019-01-05T22:42:17.507Z,1.20
2019-01-05T22:44:12.276Z,1.20
2019-01-05T22:46:06.229Z,1.20
2019-01-05T22:48:04.254Z,1.20
2019-01-05T22:49:58.896Z,1.20
2019-01-05T22:51:53.993Z,1.20
2019-01-05T22:54:02.234Z,1.20
2019-01-05T22:55:56.079Z,1.20
2019-01-05T22:57:51.171Z,1.20
2019-01-05T23:00:04.384Z,1.20
2019-01-05T23:01:54.428Z,1.10
2019-01-05T23:03:48.471Z,1.10
2019-01-05T23:05:35.995Z,1.10
2019-01-05T23:07:29.847Z,1.10
2019-01-05T23:09:31.770Z,1.10
2019-01-05T23:11:35.878Z,1.20
2019-01-05T23:13:46.222Z,1.20
2019-01-05T23:15:59.426Z,1.20
2019-01-05T23:17:53.340Z,1.20
2019-01-05T23:19:57.177Z,1.20
2019-01-05T23:21:50.908Z,1.20
2019-01-05T23:23:49.668Z,1.30
2019-01-05T23:25:47.981Z,1.30
2019-01-05T23:27:58.325Z,1.30
2019-01-05T23:29:52.140Z,1.30
2019-01-05T23:31:53.220Z,1.30
2019-01-05T23:33:51.065Z,1.30
2019-01-05T23:35:49.239Z,1.20
2019-01-05T23:38:02.441Z,1.20
2019-01-05T23:40:15.690Z,1.20
2019-01-05T23:42:21.730Z,1.20
2019-01-05T23:44:31.914Z,1.20
2019-01-05T23:46:30.929Z,1.20
2019-01-05T23:48:34.932Z,1.20
2019-01-05T23:50:36.057Z,1.20
2019-01-05T23:52:35.542Z,1.20
2019-01-05T23:54:39.909Z,1.20
2019-01-05T23:56:47.002Z,1.20
2019-01-05T23:58:42.150Z,1.20
